Time;durP1;ratioP1;P1;durP2;ratioP2;P2;SDS_P1;SDS_P2;PMS_P1;PMS_P2;Temp;Humidity;BMP_temperature;BMP_pressure;BME280_temperature;BME280_humidity;BME280_pressure;Samples;Min_cycle;Max_cycle;Signal;HPM_P1;HPM_P2
2022/06/30 00:01:34;;;;;;;5.67;5.17;;;19.90;99.90;;;;;;4992397;28;20206;-60
2022/06/30 00:04:01;;;;;;;6.83;6.33;;;19.90;99.90;;;;;;4987002;28;20222;-59
2022/06/30 00:06:27;;;;;;;6.90;6.40;;;20.50;99.90;;;;;;4993345;28;20649;-60
2022/06/30 00:08:52;;;;;;;6.60;5.93;;;19.90;99.90;;;;;;4992380;28;20216;-59
2022/06/30 00:11:19;;;;;;;6.20;5.77;;;19.90;99.90;;;;;;4993006;28;20939;-60
2022/06/30 00:13:45;;;;;;;6.25;5.60;;;19.80;99.90;;;;;;4990123;28;20178;-59
2022/06/30 00:16:11;;;;;;;6.78;6.13;;;19.80;99.90;;;;;;4992879;28;20263;-59
2022/06/30 00:18:37;;;;;;;6.53;6.03;;;19.80;99.90;;;;;;4992354;28;20725;-60
2022/06/30 00:21:03;;;;;;;5.90;5.40;;;19.70;99.90;;;;;;4992722;28;20298;-61
2022/06/30 00:23:29;;;;;;;6.80;6.30;;;19.80;99.90;;;;;;4988893;28;20443;-59
2022/06/30 00:25:55;;;;;;;6.05;5.65;;;19.70;99.90;;;;;;4989573;28;20451;-61
2022/06/30 00:28:21;;;;;;;6.13;5.63;;;19.70;99.90;;;;;;4993669;28;20207;-61
2022/06/30 00:30:51;;;;;;;6.38;5.88;;;19.60;99.90;;;;;;4993666;28;20204;-61
2022/06/30 00:33:17;;;;;;;8.13;6.35;;;19.60;99.90;;;;;;4982478;28;20195;-60
2022/06/30 00:35:43;;;;;;;6.88;6.10;;;19.50;99.90;;;;;;4993966;28;20259;-61
2022/06/30 00:38:10;;;;;;;6.28;5.75;;;19.50;99.90;;;;;;4985966;28;20191;-63
2022/06/30 00:40:36;;;;;;;7.63;6.63;;;19.50;99.90;;;;;;4992194;28;20211;-62
2022/06/30 00:43:02;;;;;;;6.00;5.60;;;19.00;99.90;;;;;;4991633;28;20707;-61
2022/06/30 00:45:28;;;;;;;7.70;6.13;;;19.50;99.90;;;;;;4993609;28;20564;-62
2022/06/30 00:47:54;;;;;;;6.93;6.30;;;19.50;99.90;;;;;;4991346;28;20215;-63
2022/06/30 00:50:20;;;;;;;6.60;6.00;;;19.40;99.90;;;;;;4992991;28;20972;-61
2022/06/30 00:52:46;;;;;;;6.23;5.73;;;19.30;99.90;;;;;;4993013;28;20633;-62
2022/06/30 00:55:15;;;;;;;6.00;5.60;;;19.20;99.90;;;;;;4989587;28;20192;-61
2022/06/30 00:57:42;;;;;;;5.80;5.40;;;19.20;99.90;;;;;;4989748;28;20249;-62
2022/06/30 01:00:09;;;;;;;6.80;5.90;;;19.20;99.90;;;;;;4987575;28;20199;-61
2022/06/30 01:02:35;;;;;;;6.28;5.68;;;19.20;99.90;;;;;;4992799;28;20247;-61
2022/06/30 01:05:01;;;;;;;6.40;5.82;;;19.20;99.90;;;;;;4991729;28;20334;-62
2022/06/30 01:07:28;;;;;;;6.72;6.10;;;19.20;99.90;;;;;;4992796;28;20216;-61
2022/06/30 01:12:42;;;;;;;6.18;5.65;;;19.20;99.90;;;;;;4988754;28;20175;-61
2022/06/30 01:15:09;;;;;;;6.55;6.05;;;19.20;99.90;;;;;;4993124;28;20191;-61
2022/06/30 01:17:35;;;;;;;6.10;5.70;;;19.10;99.90;;;;;;4989181;28;20183;-61
2022/06/30 01:20:01;;;;;;;6.23;5.70;;;19.10;99.90;;;;;;4987002;28;20597;-61
2022/06/30 01:22:27;;;;;;;6.32;5.72;;;19.10;99.90;;;;;;4992537;28;20192;-61
2022/06/30 01:24:53;;;;;;;6.70;6.10;;;19.00;99.90;;;;;;4992817;28;20199;-60
2022/06/30 01:27:19;;;;;;;6.57;5.70;;;19.00;99.90;;;;;;4990534;28;20478;-61
2022/06/30 01:29:45;;;;;;;6.60;5.90;;;19.00;99.90;;;;;;4990570;28;20874;-62
2022/06/30 01:32:11;;;;;;;7.30;5.50;;;19.00;99.90;;;;;;4993338;28;20502;-61
2022/06/30 01:34:37;;;;;;;6.83;6.27;;;18.90;99.90;;;;;;4987865;28;20271;-61
2022/06/30 01:37:03;;;;;;;6.80;6.20;;;18.90;99.90;;;;;;4991760;28;20434;-61
2022/06/30 01:39:29;;;;;;;6.40;5.80;;;18.80;99.90;;;;;;4991389;28;20191;-61
2022/06/30 01:41:55;;;;;;;6.37;5.90;;;18.90;99.90;;;;;;4986876;28;20210;-61
2022/06/30 01:44:20;;;;;;;6.63;6.10;;;18.90;99.90;;;;;;4992609;28;20219;-60
2022/06/30 01:46:48;;;;;;;6.10;5.60;;;18.90;99.90;;;;;;4991859;28;20191;-60
2022/06/30 01:49:14;;;;;;;6.05;5.53;;;18.80;99.90;;;;;;4991174;28;20279;-62
2022/06/30 01:51:40;;;;;;;6.43;5.82;;;18.80;99.90;;;;;;4991540;28;20207;-61
2022/06/30 01:54:06;;;;;;;5.97;5.57;;;18.80;99.90;;;;;;4990898;28;20196;-61
2022/06/30 01:56:31;;;;;;;6.57;6.07;;;18.80;99.90;;;;;;4989242;28;20196;-60
2022/06/30 01:58:57;;;;;;;6.30;5.70;;;18.90;99.90;;;;;;4984925;28;20188;-60
2022/06/30 02:01:22;;;;;;;5.87;5.47;;;18.80;99.90;;;;;;4988772;28;20230;-61
2022/06/30 02:03:48;;;;;;;6.83;6.23;;;18.80;99.90;;;;;;4984731;28;20283;-60
2022/06/30 02:06:13;;;;;;;6.67;6.13;;;18.80;99.90;;;;;;4991751;28;20195;-60
2022/06/30 02:08:39;;;;;;;6.67;6.17;;;18.70;99.90;;;;;;4982931;28;20677;-61
2022/06/30 02:11:05;;;;;;;6.33;5.83;;;18.70;99.90;;;;;;4981998;28;20203;-60
2022/06/30 02:13:31;;;;;;;6.67;6.07;;;18.70;99.90;;;;;;4989542;28;20449;-61
2022/06/30 02:15:56;;;;;;;8.17;6.10;;;18.70;99.90;;;;;;4991717;28;20190;-60
2022/06/30 02:18:22;;;;;;;7.00;6.40;;;18.70;99.90;;;;;;4989146;28;20274;-60
2022/06/30 02:20:48;;;;;;;7.47;6.87;;;18.60;99.90;;;;;;4986431;28;20203;-60
2022/06/30 02:23:13;;;;;;;6.97;6.37;;;18.60;99.90;;;;;;4991462;28;20199;-61
2022/06/30 02:25:39;;;;;;;6.70;6.20;;;18.60;99.90;;;;;;4985973;28;20222;-60
2022/06/30 02:28:05;;;;;;;6.97;6.40;;;18.60;99.90;;;;;;4991456;28;20213;-60
2022/06/30 02:30:32;;;;;;;6.50;6.00;;;18.60;99.90;;;;;;4991723;28;20285;-60
2022/06/30 02:32:58;;;;;;;6.88;6.32;;;18.70;99.90;;;;;;4988436;28;20464;-61
2022/06/30 02:35:24;;;;;;;6.80;6.20;;;18.70;99.90;;;;;;4989621;28;20210;-60
2022/06/30 02:37:50;;;;;;;6.60;6.00;;;18.60;99.90;;;;;;4988580;28;20431;-60
2022/06/30 02:40:16;;;;;;;6.63;6.05;;;18.60;99.90;;;;;;4988159;28;20646;-60
2022/06/30 02:42:43;;;;;;;6.50;6.00;;;18.60;99.90;;;;;;4989504;28;20238;-61
2022/06/30 02:45:09;;;;;;;6.30;5.75;;;18.50;99.90;;;;;;4991421;28;20195;-61
2022/06/30 02:47:37;;;;;;;7.32;6.72;;;18.50;99.90;;;;;;4990342;28;20207;-62
2022/06/30 02:50:05;;;;;;;7.40;6.45;;;18.50;99.90;;;;;;4986974;28;20189;-61
2022/06/30 02:52:32;;;;;;;6.43;5.93;;;18.50;99.90;;;;;;4991038;28;20187;-61
2022/06/30 02:54:58;;;;;;;6.80;6.10;;;18.50;99.90;;;;;;4991185;28;20187;-60
2022/06/30 02:57:24;;;;;;;8.25;7.45;;;18.50;99.90;;;;;;4990218;28;20198;-61
2022/06/30 02:59:51;;;;;;;6.90;6.27;;;18.40;99.90;;;;;;4986355;28;20195;-61
2022/06/30 03:02:17;;;;;;;7.88;7.28;;;18.30;99.90;;;;;;4989197;28;20462;-60
2022/06/30 03:04:42;;;;;;;6.63;5.97;;;18.40;99.90;;;;;;4983390;28;20192;-60
2022/06/30 03:07:08;;;;;;;6.40;5.83;;;18.40;99.90;;;;;;4989767;28;20616;-61
2022/06/30 03:09:34;;;;;;;7.33;6.73;;;18.30;99.90;;;;;;4981027;28;20189;-61
2022/06/30 03:12:00;;;;;;;7.20;6.60;;;18.30;99.90;;;;;;4990289;28;20570;-60
2022/06/30 03:14:26;;;;;;;7.37;6.77;;;18.30;99.90;;;;;;4986143;28;20186;-60
2022/06/30 03:16:52;;;;;;;7.30;6.60;;;18.20;99.90;;;;;;4989143;28;20932;-61
2022/06/30 03:19:19;;;;;;;7.40;6.80;;;18.20;99.90;;;;;;4982622;28;20273;-60
2022/06/30 03:21:44;;;;;;;7.70;7.10;;;18.20;99.90;;;;;;4988966;28;20199;-60
2022/06/30 03:24:10;;;;;;;7.60;6.90;;;18.20;99.90;;;;;;4990666;28;20183;-61
2022/06/30 03:26:36;;;;;;;7.93;7.13;;;18.20;99.90;;;;;;4982601;28;20196;-61
2022/06/30 03:29:03;;;;;;;7.68;7.07;;;18.20;99.90;;;;;;4988331;28;20217;-61
2022/06/30 03:31:29;;;;;;;7.30;6.60;;;18.20;99.90;;;;;;4984667;28;20214;-60
2022/06/30 03:33:54;;;;;;;7.70;7.10;;;18.40;99.90;;;;;;4984298;28;20199;-60
2022/06/30 03:36:20;;;;;;;7.10;6.60;;;18.10;99.90;;;;;;4990109;28;20290;-60
2022/06/30 03:38:45;;;;;;;9.03;6.67;;;18.20;99.90;;;;;;4988694;28;20645;-61
2022/06/30 03:41:11;;;;;;;8.60;6.80;;;18.20;99.90;;;;;;4989638;28;20215;-61
2022/06/30 03:43:37;;;;;;;8.53;6.90;;;18.20;99.90;;;;;;4984953;28;20261;-62
2022/06/30 03:46:02;;;;;;;7.50;6.80;;;18.10;99.90;;;;;;4987365;28;20188;-63
2022/06/30 03:48:28;;;;;;;7.20;6.60;;;18.20;99.90;;;;;;4982966;28;20309;-60
2022/06/30 03:50:54;;;;;;;7.67;6.93;;;18.20;99.90;;;;;;4985127;28;20226;-60
2022/06/30 03:53:19;;;;;;;7.40;6.80;;;18.20;99.90;;;;;;4988702;28;20229;-60
2022/06/30 03:55:45;;;;;;;7.47;6.73;;;18.30;99.90;;;;;;4986557;28;20568;-60
2022/06/30 03:58:11;;;;;;;7.70;6.97;;;18.30;99.90;;;;;;4990055;28;20191;-62
2022/06/30 04:00:36;;;;;;;8.03;6.93;;;18.30;99.90;;;;;;4987022;28;20223;-62
2022/06/30 04:03:03;;;;;;;7.67;7.00;;;18.70;99.90;;;;;;4987479;28;20200;-61
2022/06/30 04:05:29;;;;;;;8.45;7.65;;;18.30;99.90;;;;;;4987132;28;20482;-60
2022/06/30 04:07:55;;;;;;;10.23;9.33;;;18.30;99.90;;;;;;4989183;28;20247;-60
2022/06/30 04:10:21;;;;;;;9.43;7.83;;;18.30;99.90;;;;;;4982790;28;20486;-60
2022/06/30 04:12:47;;;;;;;7.60;7.00;;;18.30;99.90;;;;;;4987190;28;20188;-62
2022/06/30 04:15:12;;;;;;;7.30;6.70;;;18.30;99.90;;;;;;4987243;28;20187;-61
2022/06/30 04:17:38;;;;;;;8.83;8.20;;;18.40;99.90;;;;;;4988956;28;20188;-60
2022/06/30 04:20:06;;;;;;;7.90;7.10;;;18.40;99.90;;;;;;4981134;28;20233;-60
2022/06/30 04:22:32;;;;;;;7.57;6.95;;;18.50;99.90;;;;;;4988811;28;20192;-60
2022/06/30 04:24:58;;;;;;;7.70;7.07;;;18.60;99.90;;;;;;4989681;28;20194;-60
2022/06/30 04:27:23;;;;;;;7.53;6.80;;;18.60;99.90;;;;;;4989989;28;20237;-60
2022/06/30 04:29:49;;;;;;;7.67;6.97;;;18.70;99.90;;;;;;4991915;28;20446;-61
2022/06/30 04:34:59;;;;;;;7.97;6.95;;;18.70;99.90;;;;;;4988056;28;20233;-61
2022/06/30 04:37:25;;;;;;;7.97;7.10;;;18.90;99.90;;;;;;4983612;28;20200;-61
2022/06/30 04:41:23;;;;;;;7.80;6.97;;;18.90;99.90;;;;;;4990245;28;20183;-61
2022/06/30 04:42:36;;;;;;;8.50;7.80;;;19.00;99.90;;;;;;4982730;28;20210;-61
2022/06/30 04:45:02;;;;;;;7.87;7.27;;;19.00;99.90;;;;;;4988443;28;20188;-61
2022/06/30 04:47:28;;;;;;;6.97;6.45;;;19.10;99.90;;;;;;4991114;28;20754;-62
2022/06/30 04:49:54;;;;;;;7.57;6.87;;;19.00;99.90;;;;;;4982865;28;20283;-61
2022/06/30 04:52:20;;;;;;;8.07;7.47;;;19.30;99.90;;;;;;4990326;28;20206;-62
2022/06/30 04:54:45;;;;;;;7.40;6.80;;;19.40;99.90;;;;;;4992513;28;20195;-61
2022/06/30 04:57:11;;;;;;;7.73;7.00;;;19.60;99.90;;;;;;4986322;28;20223;-61
2022/06/30 04:59:37;;;;;;;7.47;6.87;;;19.60;99.90;;;;;;4990823;28;20638;-61
2022/06/30 05:02:03;;;;;;;9.77;7.00;;;19.80;99.90;;;;;;4989717;28;20306;-62
2022/06/30 05:04:28;;;;;;;7.50;6.73;;;19.90;99.90;;;;;;4989396;28;20197;-63
2022/06/30 05:06:54;;;;;;;12.10;8.00;;;20.00;99.90;;;;;;4988705;28;21031;-62
2022/06/30 05:09:19;;;;;;;9.70;8.00;;;20.00;99.90;;;;;;4992590;28;20184;-62
2022/06/30 05:11:45;;;;;;;8.07;6.77;;;20.00;99.90;;;;;;4985730;28;20274;-61
2022/06/30 05:14:11;;;;;;;10.57;7.70;;;20.00;99.90;;;;;;4985194;28;20287;-63
2022/06/30 05:16:36;;;;;;;11.90;7.70;;;20.10;99.90;;;;;;4991401;28;20188;-62
2022/06/30 05:19:02;;;;;;;8.80;8.00;;;20.10;99.90;;;;;;4986359;28;20218;-63
2022/06/30 05:21:27;;;;;;;8.17;7.57;;;20.10;99.90;;;;;;4988868;28;20211;-62
2022/06/30 05:26:37;;;;;;;8.43;7.68;;;20.20;99.90;;;;;;4989608;28;20684;-62
2022/06/30 05:29:03;;;;;;;7.67;6.97;;;20.20;99.90;;;;;;4990799;28;20211;-68
2022/06/30 05:31:29;;;;;;;7.40;6.80;;;20.30;99.90;;;;;;4988957;28;20258;-63
2022/06/30 05:33:54;;;;;;;7.13;6.53;;;20.40;99.90;;;;;;4983939;28;20267;-64
2022/06/30 05:36:20;;;;;;;7.50;7.00;;;20.60;99.90;;;;;;4987164;28;20183;-64
2022/06/30 05:38:45;;;;;;;7.90;7.30;;;20.80;99.90;;;;;;4989313;28;20665;-64
2022/06/30 05:41:11;;;;;;;7.43;6.83;;;20.90;99.90;;;;;;4989204;28;20211;-64
2022/06/30 05:43:37;;;;;;;9.43;8.13;;;21.00;99.90;;;;;;4987956;28;20705;-64
2022/06/30 05:46:02;;;;;;;8.80;8.00;;;21.20;99.90;;;;;;4992873;28;20200;-61
2022/06/30 05:48:28;;;;;;;8.40;7.60;;;21.30;99.90;;;;;;4986102;28;20227;-61
2022/06/30 05:50:54;;;;;;;8.23;7.53;;;21.50;99.90;;;;;;4984825;28;20214;-62
2022/06/30 05:53:19;;;;;;;7.20;6.60;;;21.60;99.90;;;;;;4987444;28;20207;-60
2022/06/30 05:55:45;;;;;;;9.27;8.50;;;21.60;99.90;;;;;;4987684;28;20206;-61
2022/06/30 05:58:13;;;;;;;8.30;7.70;;;21.80;99.90;;;;;;4983598;28;20653;-68
2022/06/30 06:00:38;;;;;;;8.27;7.65;;;21.90;99.90;;;;;;4986959;28;20227;-75
2022/06/30 06:03:04;;;;;;;7.80;7.20;;;22.10;99.90;;;;;;4983687;28;20246;-71
2022/06/30 06:05:30;;;;;;;8.80;7.90;;;22.30;99.90;;;;;;4989822;28;20233;-71
2022/06/30 06:08:03;;;;;;;9.70;7.40;;;22.40;99.90;;;;;;4984538;28;20214;-61
2022/06/30 06:10:28;;;;;;;9.18;8.27;;;22.50;99.90;;;;;;4990716;28;20673;-61
2022/06/30 06:12:54;;;;;;;8.23;7.43;;;22.50;99.90;;;;;;4987498;28;20304;-61
2022/06/30 06:15:19;;;;;;;8.23;7.53;;;22.60;99.90;;;;;;4991867;28;20202;-61
2022/06/30 06:17:47;;;;;;;7.60;6.90;;;22.70;99.90;;;;;;4986355;28;20195;-61
2022/06/30 06:20:15;;;;;;;9.80;6.90;;;22.90;99.90;;;;;;4983647;28;20274;-61
2022/06/30 06:22:41;;;;;;;8.40;7.50;;;23.00;99.90;;;;;;4987094;28;20507;-61
2022/06/30 06:25:08;;;;;;;9.03;8.27;;;23.00;99.90;;;;;;4985393;28;20447;-61
2022/06/30 06:27:34;;;;;;;7.90;7.27;;;23.10;99.90;;;;;;4980077;28;20467;-61
2022/06/30 06:30:03;;;;;;;8.55;7.70;;;23.20;99.90;;;;;;4982514;28;20442;-61
2022/06/30 06:32:29;;;;;;;7.50;6.90;;;23.30;99.90;;;;;;4990720;28;20190;-66
2022/06/30 06:34:55;;;;;;;8.00;7.40;;;23.50;99.90;;;;;;4988097;28;21001;-70
2022/06/30 06:37:20;;;;;;;7.57;6.87;;;23.60;99.90;;;;;;4990996;28;20509;-71
2022/06/30 06:39:46;;;;;;;8.70;8.00;;;23.70;99.90;;;;;;4987232;28;20262;-70
2022/06/30 06:42:11;;;;;;;9.77;8.13;;;23.70;99.90;;;;;;4985273;28;20215;-70
2022/06/30 06:44:37;;;;;;;9.20;8.37;;;23.80;99.90;;;;;;4987096;28;20270;-70
2022/06/30 06:47:03;;;;;;;9.27;8.57;;;23.90;99.90;;;;;;4991023;28;20561;-70
2022/06/30 06:49:30;;;;;;;12.30;11.00;;;24.00;99.90;;;;;;4981854;28;20190;-70
2022/06/30 06:51:56;;;;;;;9.60;8.80;;;24.10;99.90;;;;;;4990749;28;20250;-70
2022/06/30 06:54:21;;;;;;;9.17;7.97;;;24.30;99.90;;;;;;4991000;28;20443;-70
2022/06/30 06:56:47;;;;;;;8.80;7.20;;;24.40;99.90;;;;;;4985998;28;20947;-69
2022/06/30 06:59:13;;;;;;;7.03;6.53;;;24.60;99.90;;;;;;4987065;28;20187;-73
2022/06/30 07:01:38;;;;;;;8.53;7.73;;;24.80;99.90;;;;;;4987644;28;20222;-70
2022/06/30 07:04:04;;;;;;;7.47;6.50;;;25.20;99.90;;;;;;4986223;28;20234;-70
2022/06/30 07:06:30;;;;;;;8.77;7.00;;;25.70;99.70;;;;;;4989935;28;20181;-69
2022/06/30 07:08:55;;;;;;;7.37;6.67;;;26.50;98.80;;;;;;4987341;28;20232;-70
2022/06/30 07:11:21;;;;;;;6.30;5.80;;;27.80;96.50;;;;;;4975489;28;20254;-68
2022/06/30 07:13:46;;;;;;;7.50;6.80;;;29.50;93.30;;;;;;4984823;28;20203;-70
2022/06/30 07:16:12;;;;;;;7.00;6.50;;;31.20;89.20;;;;;;4991252;28;20183;-70
2022/06/30 07:18:38;;;;;;;6.30;5.70;;;33.00;81.50;;;;;;4983577;28;20192;-72
2022/06/30 07:21:03;;;;;;;7.30;6.70;;;34.70;75.50;;;;;;4988047;28;20212;-70
2022/06/30 07:23:29;;;;;;;6.13;5.50;;;35.50;68.00;;;;;;4986771;28;20692;-71
2022/06/30 07:25:55;;;;;;;7.57;6.50;;;38.50;60.50;;;;;;4988191;28;20197;-67
2022/06/30 07:28:20;;;;;;;7.63;6.90;;;39.60;55.20;;;;;;4984326;28;20216;-67
2022/06/30 07:30:46;;;;;;;6.07;5.50;;;41.40;51.00;;;;;;4981057;28;20200;-66
2022/06/30 07:33:12;;;;;;;5.50;5.00;;;42.30;47.80;;;;;;4977317;28;20188;-72
2022/06/30 07:35:37;;;;;;;6.03;5.13;;;43.20;45.60;;;;;;4990966;28;20618;-72
2022/06/30 07:38:03;;;;;;;5.63;5.33;;;43.40;43.10;;;;;;4988196;28;20191;-72
2022/06/30 07:40:29;;;;;;;6.03;5.40;;;44.70;42.20;;;;;;4982373;28;20223;-73
2022/06/30 07:42:55;;;;;;;5.20;4.77;;;42.60;43.30;;;;;;4999543;28;20215;-73
2022/06/30 07:45:21;;;;;;;5.53;5.00;;;43.20;42.30;;;;;;4985846;28;20187;-72
2022/06/30 07:47:48;;;;;;;5.37;4.97;;;42.00;42.10;;;;;;4985164;28;20470;-73
2022/06/30 07:50:16;;;;;;;5.17;4.87;;;43.30;41.60;;;;;;4979317;28;20445;-72
2022/06/30 07:52:41;;;;;;;7.27;5.30;;;44.30;40.10;;;;;;4988962;28;20446;-71
2022/06/30 07:55:07;;;;;;;5.27;4.87;;;44.30;40.30;;;;;;4986002;28;20825;-71
2022/06/30 07:57:36;;;;;;;5.90;5.47;;;42.80;40.60;;;;;;4981249;28;20188;-71
2022/06/30 08:00:05;;;;;;;7.10;5.27;;;42.70;41.20;;;;;;4983658;28;20907;-70
2022/06/30 08:02:30;;;;;;;6.00;5.60;;;40.80;43.30;;;;;;4993512;28;20434;-69
2022/06/30 08:04:56;;;;;;;5.40;5.07;;;41.70;42.30;;;;;;4985346;28;20446;-69
2022/06/30 08:07:21;;;;;;;5.67;5.27;;;41.30;44.00;;;;;;4991091;28;20216;-68
2022/06/30 08:09:47;;;;;;;5.37;4.93;;;42.80;42.10;;;;;;4989422;28;20184;-67
2022/06/30 08:12:13;;;;;;;7.30;5.20;;;43.50;41.10;;;;;;4993239;28;20259;-68
2022/06/30 08:14:39;;;;;;;7.23;5.47;;;44.10;39.90;;;;;;4993218;28;20558;-68
2022/06/30 08:17:04;;;;;;;6.77;5.10;;;43.00;39.20;;;;;;4991774;28;20187;-70
2022/06/30 08:19:31;;;;;;;7.43;5.70;;;43.40;39.80;;;;;;4989015;28;20186;-70
2022/06/30 08:21:57;;;;;;;5.80;5.30;;;42.10;41.10;;;;;;4986228;28;20588;-71
2022/06/30 08:24:22;;;;;;;5.20;4.70;;;43.20;39.20;;;;;;4989351;28;20442;-70
2022/06/30 08:26:48;;;;;;;5.37;4.90;;;43.30;38.80;;;;;;4992830;28;20191;-69
2022/06/30 08:29:14;;;;;;;6.63;4.33;;;43.70;37.80;;;;;;4982807;28;20219;-70
2022/06/30 08:31:40;;;;;;;6.03;5.53;;;42.20;39.00;;;;;;4987212;28;20212;-69
2022/06/30 08:34:06;;;;;;;6.40;5.03;;;42.60;40.30;;;;;;4985075;28;20218;-69
2022/06/30 08:36:32;;;;;;;4.60;4.27;;;42.20;41.20;;;;;;4987927;28;20478;-67
2022/06/30 08:38:58;;;;;;;8.10;5.37;;;42.30;38.50;;;;;;4982981;28;20186;-66
2022/06/30 08:44:09;;;;;;;5.43;4.90;;;41.20;40.30;;;;;;4979106;28;20602;-66
2022/06/30 08:46:38;;;;;;;5.30;4.90;;;42.10;40.00;;;;;;4987711;28;20530;-70
2022/06/30 08:49:04;;;;;;;6.57;6.07;;;41.90;39.40;;;;;;4986801;28;20590;-65
2022/06/30 08:51:33;;;;;;;5.30;4.90;;;42.20;39.30;;;;;;4985835;28;20888;-66
2022/06/30 08:54:00;;;;;;;6.10;5.63;;;42.00;39.50;;;;;;4990743;28;20455;-69
2022/06/30 08:56:34;;;;;;;5.13;4.73;;;41.60;40.00;;;;;;4989946;28;20439;-69
2022/06/30 08:59:03;;;;;;;5.23;4.87;;;42.90;38.70;;;;;;4987996;28;20473;-70
2022/06/30 09:01:29;;;;;;;4.77;4.37;;;42.60;37.80;;;;;;4983611;28;20465;-70
2022/06/30 09:03:56;;;;;;;5.23;4.73;;;42.60;37.80;;;;;;4988707;28;20566;-69
2022/06/30 09:06:21;;;;;;;5.03;4.63;;;41.80;37.20;;;;;;4987046;28;20856;-69
2022/06/30 09:08:48;;;;;;;5.63;5.07;;;41.80;37.90;;;;;;4989756;28;20466;-69
2022/06/30 09:11:14;;;;;;;4.97;4.53;;;42.60;36.90;;;;;;4988345;28;20337;-66
2022/06/30 09:13:50;;;;;;;4.43;4.13;;;43.00;36.90;;;;;;4986143;28;20799;-70
2022/06/30 09:16:19;;;;;;;4.50;4.10;;;43.20;35.20;;;;;;4989838;28;20187;-71
2022/06/30 09:18:45;;;;;;;5.37;4.87;;;43.30;34.30;;;;;;4989524;28;20442;-68
2022/06/30 09:21:16;;;;;;;5.10;4.80;;;43.60;34.70;;;;;;4986613;28;20466;-68
2022/06/30 09:23:46;;;;;;;4.90;4.40;;;43.40;33.60;;;;;;4988983;28;20213;-67
2022/06/30 09:26:23;;;;;;;5.30;4.80;;;43.20;34.70;;;;;;4987838;28;20450;-67
2022/06/30 09:28:51;;;;;;;4.23;3.90;;;43.80;34.80;;;;;;4988886;28;20893;-67
2022/06/30 09:31:36;;;;;;;4.60;4.20;;;43.50;34.20;;;;;;4988158;28;20460;-68
2022/06/30 09:34:16;;;;;;;3.90;3.70;;;43.60;34.20;;;;;;4978699;28;20434;-67
2022/06/30 09:36:43;;;;;;;4.47;4.17;;;43.20;34.00;;;;;;4986343;28;20438;-68
2022/06/30 09:39:11;;;;;;;3.93;3.70;;;43.00;33.30;;;;;;4985421;28;20538;-66
2022/06/30 09:41:42;;;;;;;4.33;3.67;;;43.10;32.10;;;;;;4989141;28;20466;-68
2022/06/30 09:44:22;;;;;;;5.30;3.47;;;43.50;31.60;;;;;;4991522;28;20442;-72
2022/06/30 09:47:08;;;;;;;3.50;3.20;;;43.50;30.10;;;;;;4984676;28;20439;-77
2022/06/30 09:49:42;;;;;;;4.10;3.70;;;43.60;31.40;;;;;;4980859;28;21259;-72
2022/06/30 09:52:22;;;;;;;3.80;3.50;;;43.50;30.70;;;;;;4987894;28;20910;-72
2022/06/30 09:54:59;;;;;;;5.90;4.17;;;43.70;31.60;;;;;;4990051;28;21015;-71
2022/06/30 09:57:28;;;;;;;3.57;3.07;;;43.00;31.90;;;;;;4988359;28;20452;-75
2022/06/30 10:00:15;;;;;;;3.97;3.67;;;42.90;32.10;;;;;;4989027;28;20446;-68
2022/06/30 10:02:52;;;;;;;4.87;4.00;;;43.60;31.00;;;;;;4980756;28;20466;-68
2022/06/30 10:05:19;;;;;;;5.40;5.00;;;43.00;31.00;;;;;;4983437;28;20442;-70
2022/06/30 10:07:45;;;;;;;3.97;3.67;;;43.20;31.70;;;;;;4988926;28;20474;-69
2022/06/30 10:10:17;;;;;;;4.77;4.00;;;42.00;31.10;;;;;;4982865;28;20439;-68
2022/06/30 10:12:45;;;;;;;4.30;3.57;;;42.80;32.00;;;;;;4982316;28;20449;-68
2022/06/30 10:15:13;;;;;;;4.73;4.30;;;43.00;31.00;;;;;;4991397;28;20965;-68
2022/06/30 10:17:50;;;;;;;4.33;3.90;;;43.00;30.90;;;;;;4980235;28;20845;-67
2022/06/30 10:20:16;;;;;;;5.80;5.17;;;43.50;30.80;;;;;;4990292;28;20990;-68
2022/06/30 10:22:42;;;;;;;4.47;4.00;;;43.20;31.60;;;;;;4980748;28;20575;-68
2022/06/30 10:25:08;;;;;;;5.13;4.43;;;44.00;30.90;;;;;;4990575;28;20183;-68
2022/06/30 10:27:34;;;;;;;4.23;3.93;;;44.20;30.40;;;;;;4989602;28;20473;-68
2022/06/30 10:30:02;;;;;;;5.37;4.63;;;44.40;30.20;;;;;;4989528;28;20442;-68
2022/06/30 10:32:55;;;;;;;6.57;4.30;;;44.70;30.20;;;;;;4986118;28;20180;-68
2022/06/30 10:35:40;;;;;;;4.50;4.10;;;43.30;30.70;;;;;;4980217;28;20437;-69
2022/06/30 10:38:28;;;;;;;4.80;4.30;;;42.50;31.90;;;;;;4980108;28;20482;-69
2022/06/30 10:41:14;;;;;;;4.57;4.23;;;43.30;31.50;;;;;;4985066;28;20494;-68
2022/06/30 10:44:05;;;;;;;4.57;4.17;;;43.20;30.50;;;;;;4980594;28;20470;-68
2022/06/30 10:46:36;;;;;;;4.60;4.17;;;43.10;31.30;;;;;;4984827;28;20478;-68
2022/06/30 10:49:10;;;;;;;5.50;5.00;;;42.70;32.00;;;;;;4973998;28;21145;-68
2022/06/30 10:51:36;;;;;;;4.87;4.47;;;41.10;33.60;;;;;;4988372;28;20462;-67
2022/06/30 10:54:02;;;;;;;5.60;4.40;;;40.30;35.30;;;;;;4980970;28;20464;-68
2022/06/30 10:56:50;;;;;;;6.73;5.10;;;40.30;35.50;;;;;;4988392;28;20438;-69
2022/06/30 10:59:17;;;;;;;5.20;4.83;;;40.50;35.00;;;;;;4973098;28;20447;-69
2022/06/30 11:02:08;;;;;;;4.53;4.23;;;40.80;35.10;;;;;;4984498;28;20458;-69
2022/06/30 11:04:35;;;;;;;4.80;4.40;;;41.10;34.50;;;;;;4984783;28;20453;-68
2022/06/30 11:07:11;;;;;;;5.47;4.97;;;41.30;33.80;;;;;;4987009;28;20968;-68
2022/06/30 11:09:54;;;;;;;5.30;4.70;;;41.30;33.70;;;;;;4987373;28;20464;-69
2022/06/30 11:12:31;;;;;;;4.97;4.57;;;41.10;33.90;;;;;;4978297;28;20463;-68
2022/06/30 11:14:58;;;;;;;4.40;4.10;;;41.70;33.20;;;;;;4990336;28;20919;-68
2022/06/30 11:17:26;;;;;;;5.80;4.10;;;42.00;33.30;;;;;;4987729;28;20481;-69
2022/06/30 11:20:04;;;;;;;5.40;4.90;;;42.80;32.80;;;;;;4984455;28;20526;-69
2022/06/30 11:22:30;;;;;;;6.00;5.10;;;42.00;32.70;;;;;;4984423;28;20871;-70
2022/06/30 11:25:00;;;;;;;5.00;4.33;;;41.60;33.80;;;;;;4983822;28;20447;-68
2022/06/30 11:27:28;;;;;;;4.83;4.27;;;41.40;33.80;;;;;;4986813;28;20488;-68
2022/06/30 11:30:03;;;;;;;6.33;5.80;;;41.40;32.00;;;;;;4976604;28;20449;-71
2022/06/30 11:32:29;;;;;;;4.87;4.57;;;41.00;32.80;;;;;;4986003;28;20447;-75
2022/06/30 11:34:58;;;;;;;5.37;4.00;;;40.70;33.20;;;;;;4989231;28;20442;-74
2022/06/30 11:37:27;;;;;;;5.33;4.40;;;41.00;33.40;;;;;;4994916;28;20457;-74
2022/06/30 11:40:19;;;;;;;8.43;5.17;;;40.90;33.50;;;;;;4996428;28;20438;-74
2022/06/30 11:42:44;;;;;;;6.43;5.63;;;40.40;34.30;;;;;;4985317;28;20458;-73
2022/06/30 11:45:21;;;;;;;5.27;4.87;;;40.70;34.40;;;;;;4993973;28;20430;-73
2022/06/30 11:48:03;;;;;;;4.73;4.43;;;40.40;34.50;;;;;;4991872;28;20218;-73
2022/06/30 11:50:29;;;;;;;5.97;5.40;;;39.80;35.70;;;;;;4983378;28;20459;-73
2022/06/30 11:52:58;;;;;;;7.23;6.53;;;39.20;36.80;;;;;;4982094;28;20835;-73
2022/06/30 11:55:26;;;;;;;5.80;4.93;;;38.10;38.60;;;;;;4990847;28;21002;-73
2022/06/30 11:57:52;;;;;;;5.10;4.80;;;36.90;39.80;;;;;;4986225;28;20510;-75
2022/06/30 12:00:21;;;;;;;4.80;4.40;;;36.40;41.10;;;;;;4984455;28;20434;-74
2022/06/30 12:02:47;;;;;;;5.20;4.90;;;36.10;41.70;;;;;;4994653;28;20269;-75
2022/06/30 12:05:15;;;;;;;5.23;4.70;;;35.90;41.80;;;;;;4991024;28;20434;-74
2022/06/30 12:07:42;;;;;;;4.93;4.63;;;35.50;40.70;;;;;;4985209;28;20995;-73
2022/06/30 12:10:11;;;;;;;5.60;5.10;;;35.10;41.40;;;;;;4995809;28;20433;-74
2022/06/30 12:12:37;;;;;;;4.63;4.30;;;34.70;41.90;;;;;;4994031;28;20441;-74
2022/06/30 12:15:09;;;;;;;4.90;4.30;;;34.20;42.00;;;;;;4996295;28;20426;-73
2022/06/30 12:17:38;;;;;;;4.70;4.30;;;33.70;42.80;;;;;;4989048;28;21073;-74
2022/06/30 12:20:06;;;;;;;5.00;4.60;;;33.70;43.60;;;;;;4996180;28;20520;-75
2022/06/30 12:22:34;;;;;;;4.63;4.20;;;33.40;43.90;;;;;;5011754;28;20469;-74
2022/06/30 12:25:00;;;;;;;4.90;4.50;;;33.20;44.70;;;;;;4987007;28;20453;-73
2022/06/30 12:27:32;;;;;;;5.40;5.00;;;32.80;46.00;;;;;;4993302;28;20472;-74
2022/06/30 12:29:58;;;;;;;5.33;4.93;;;32.60;47.30;;;;;;4981709;28;20448;-76
2022/06/30 12:32:26;;;;;;;5.20;4.87;;;32.40;47.60;;;;;;4988881;28;20463;-74
2022/06/30 12:34:54;;;;;;;4.70;4.30;;;32.40;48.40;;;;;;4980851;28;21037;-72
2022/06/30 12:37:53;;;;;;;5.03;4.57;;;32.20;48.10;;;;;;4983719;28;20441;-74
2022/06/30 12:40:22;;;;;;;5.00;4.60;;;32.20;47.70;;;;;;4944823;28;20476;-74
2022/06/30 12:42:53;;;;;;;7.93;5.70;;;32.00;47.40;;;;;;4988331;28;20444;-69
2022/06/30 12:45:46;;;;;;;5.60;4.90;;;31.90;48.80;;;;;;4994580;28;20439;-71
2022/06/30 12:48:14;;;;;;;6.20;5.60;;;32.10;49.40;;;;;;4986076;28;21013;-74
2022/06/30 12:50:43;;;;;;;5.40;4.90;;;32.10;48.60;;;;;;4993556;28;20899;-75
2022/06/30 12:53:16;;;;;;;5.13;4.67;;;32.10;48.70;;;;;;4990776;28;20510;-76
2022/06/30 12:56:11;;;;;;;5.00;4.60;;;32.20;48.00;;;;;;4990343;28;20445;-75
2022/06/30 12:58:49;;;;;;;5.20;4.67;;;32.20;47.90;;;;;;4983405;28;20532;-73
2022/06/30 13:01:17;;;;;;;5.40;4.90;;;32.10;48.20;;;;;;4984175;28;20480;-73